createdAt,value
2023-05-10T00:00:38.105Z,932.37
2023-05-10T00:01:38.797Z,932.38
2023-05-10T00:02:39.786Z,932.38
2023-05-10T00:03:39.985Z,932.37
2023-05-10T00:04:40.256Z,932.36
2023-05-10T00:05:41.185Z,932.35
2023-05-10T00:06:41.706Z,932.39
2023-05-10T00:07:42.480Z,932.4
2023-05-10T00:08:43.172Z,932.42
2023-05-10T00:09:43.317Z,932.36
2023-05-10T00:10:44.005Z,932.4
2023-05-10T00:11:45.010Z,932.4
2023-05-10T00:12:45.731Z,932.39
2023-05-10T00:13:46.794Z,932.36
2023-05-10T00:14:47.133Z,932.37
2023-05-10T00:15:47.594Z,932.36
2023-05-10T00:16:48.591Z,932.36
2023-05-10T00:17:48.658Z,932.38
2023-05-10T00:18:49.368Z,932.36
2023-05-10T00:19:50.082Z,932.33
2023-05-10T00:20:50.566Z,932.29
2023-05-10T00:21:51.294Z,932.33
2023-05-10T00:22:52.028Z,932.32
2023-05-10T00:23:53.122Z,932.27
2023-05-10T00:24:54.046Z,932.29
2023-05-10T00:25:54.773Z,932.29
2023-05-10T00:26:55.525Z,932.24
2023-05-10T00:27:56.045Z,932.25
2023-05-10T00:28:56.768Z,932.19
2023-05-10T00:29:57.708Z,932.2
2023-05-10T00:30:58.208Z,932.21
2023-05-10T00:31:58.767Z,932.22
2023-05-10T00:32:59.666Z,932.13
2023-05-10T00:34:00.530Z,932.14
2023-05-10T00:35:01.581Z,932.13
2023-05-10T00:36:02.347Z,932.11
2023-05-10T00:37:03.076Z,932.12
2023-05-10T00:38:03.202Z,932.13
2023-05-10T00:39:03.704Z,932.11
2023-05-10T00:40:04.045Z,932.09
2023-05-10T00:41:04.397Z,932.09
2023-05-10T00:42:04.746Z,932.09
2023-05-10T00:43:05.081Z,932.11
2023-05-10T00:44:05.620Z,932.12
2023-05-10T00:45:06.707Z,932.08
2023-05-10T00:46:07.076Z,932.07
2023-05-10T00:47:08.053Z,932.09
2023-05-10T00:48:08.993Z,932.09
2023-05-10T00:49:09.493Z,932.05
2023-05-10T00:50:09.822Z,932.05
2023-05-10T00:51:10.816Z,932.05
2023-05-10T00:52:11.136Z,932.07
2023-05-10T00:53:11.855Z,932.05
2023-05-10T00:54:12.376Z,932
2023-05-10T00:55:12.787Z,932.02
2023-05-10T00:56:13.101Z,932.01
2023-05-10T00:57:13.627Z,931.98
2023-05-10T00:58:14.125Z,931.98
2023-05-10T00:59:14.666Z,932.01
2023-05-10T01:00:15.874Z,931.97
2023-05-10T01:01:16.101Z,931.98
2023-05-10T01:02:16.710Z,931.99
2023-05-10T01:03:17.046Z,931.95
2023-05-10T01:04:17.642Z,931.92
2023-05-10T01:05:17.858Z,931.95
2023-05-10T01:06:18.621Z,931.93
2023-05-10T01:07:19.720Z,931.97
2023-05-10T01:08:20.447Z,931.92
2023-05-10T01:09:20.962Z,931.92
2023-05-10T01:10:21.577Z,931.89
2023-05-10T01:11:22.488Z,931.86
2023-05-10T01:12:22.846Z,931.91
2023-05-10T01:13:23.831Z,931.9
2023-05-10T01:14:24.574Z,931.89
2023-05-10T01:15:25.101Z,931.84
2023-05-10T01:16:25.362Z,931.88
2023-05-10T01:17:25.789Z,931.86
2023-05-10T01:18:26.185Z,931.84
2023-05-10T01:19:26.687Z,931.8
2023-05-10T01:20:27.169Z,931.81
2023-05-10T01:21:27.856Z,931.86
2023-05-10T01:22:28.573Z,931.86
2023-05-10T01:23:29.317Z,931.84
2023-05-10T01:24:29.615Z,931.85
2023-05-10T01:25:30.371Z,931.83
2023-05-10T01:26:30.931Z,931.8
2023-05-10T01:27:31.452Z,931.85
2023-05-10T01:28:32.314Z,931.84
2023-05-10T01:29:32.801Z,931.84
2023-05-10T01:30:33.688Z,931.81
2023-05-10T01:31:34.250Z,931.82
2023-05-10T01:32:34.855Z,931.85
2023-05-10T01:33:35.604Z,931.86
2023-05-10T01:34:36.318Z,931.88
2023-05-10T01:35:36.939Z,931.86
2023-05-10T01:36:37.447Z,931.82
2023-05-10T01:37:38.357Z,931.8
2023-05-10T01:38:38.864Z,931.81
2023-05-10T01:39:39.350Z,931.79
2023-05-10T01:40:40.091Z,931.83
2023-05-10T01:41:41.014Z,931.84
2023-05-10T01:42:41.551Z,931.84
2023-05-10T01:43:42.357Z,931.83
2023-05-10T01:44:42.822Z,931.81
2023-05-10T01:45:43.655Z,931.85
2023-05-10T01:46:44.181Z,931.85
2023-05-10T01:47:44.298Z,931.85
2023-05-10T01:48:45.270Z,931.81
2023-05-10T01:49:45.769Z,931.85
2023-05-10T01:50:46.258Z,931.79
2023-05-10T01:51:47.023Z,931.81
2023-05-10T01:52:47.350Z,931.82
2023-05-10T01:53:48.443Z,931.84
2023-05-10T01:54:48.729Z,931.82
2023-05-10T01:55:49.219Z,931.87
2023-05-10T01:56:49.828Z,931.86
2023-05-10T01:57:50.252Z,931.87
2023-05-10T01:58:51.142Z,931.9
2023-05-10T01:59:51.631Z,931.86
2023-05-10T02:00:51.867Z,931.9
2023-05-10T02:01:52.490Z,931.89
2023-05-10T02:02:53.000Z,931.91
2023-05-10T02:03:53.874Z,931.91
2023-05-10T02:04:54.146Z,931.94
2023-05-10T02:05:54.724Z,931.94
2023-05-10T02:06:55.691Z,931.94
2023-05-10T02:07:56.402Z,931.95
2023-05-10T02:08:57.340Z,931.97
2023-05-10T02:09:58.241Z,931.98
2023-05-10T02:10:58.477Z,932
2023-05-10T02:11:59.181Z,932.01
2023-05-10T02:12:59.915Z,932.02
2023-05-10T02:14:00.002Z,932.01
2023-05-10T02:15:00.986Z,932.01
2023-05-10T02:16:01.505Z,932.03
2023-05-10T02:17:02.262Z,932.03
2023-05-10T02:18:02.917Z,931.99
2023-05-10T02:19:03.941Z,932.02
2023-05-10T02:20:04.696Z,931.97
2023-05-10T02:21:05.538Z,931.97
2023-05-10T02:22:06.060Z,932.03
2023-05-10T02:23:06.545Z,932.03
2023-05-10T02:24:07.069Z,931.97
2023-05-10T02:25:07.402Z,932.01
2023-05-10T02:26:07.553Z,932.05
2023-05-10T02:27:08.070Z,932.13
2023-05-10T02:28:08.821Z,932.16
2023-05-10T02:29:09.575Z,932.12
2023-05-10T02:30:10.358Z,932.1
2023-05-10T02:31:10.851Z,932.13
2023-05-10T02:32:11.714Z,932.21
2023-05-10T02:33:12.152Z,932.24
2023-05-10T02:34:13.091Z,932.24
2023-05-10T02:35:13.247Z,932.2
2023-05-10T02:36:14.262Z,932.17
2023-05-10T02:37:14.992Z,932.21
2023-05-10T02:38:15.527Z,932.2
2023-05-10T02:39:16.113Z,932.22
2023-05-10T02:40:17.035Z,932.22
2023-05-10T02:41:17.777Z,932.21
2023-05-10T02:42:18.708Z,932.19
2023-05-10T02:43:19.057Z,932.16
2023-05-10T02:44:19.821Z,932.16
2023-05-10T02:45:20.520Z,932.24
2023-05-10T02:46:21.505Z,932.32
2023-05-10T02:47:21.880Z,932.35
2023-05-10T02:48:22.117Z,932.26
2023-05-10T02:49:22.623Z,932.28
2023-05-10T02:50:23.537Z,932.28
2023-05-10T02:51:24.032Z,932.26
2023-05-10T02:52:24.496Z,932.24
2023-05-10T02:53:24.643Z,932.26
2023-05-10T02:54:25.145Z,932.22
2023-05-10T02:55:25.645Z,932.24
2023-05-10T02:56:26.148Z,932.26
2023-05-10T02:57:26.650Z,932.25
2023-05-10T02:58:27.206Z,932.27
2023-05-10T02:59:27.882Z,932.3
2023-05-10T03:00:28.822Z,932.28
2023-05-10T03:01:29.864Z,932.22
2023-05-10T03:02:30.716Z,932.2
2023-05-10T03:03:31.200Z,932.2
2023-05-10T03:04:31.973Z,932.2
2023-05-10T03:05:32.293Z,932.19
2023-05-10T03:06:32.952Z,932.22
2023-05-10T03:07:33.464Z,932.25
2023-05-10T03:08:34.171Z,932.23
2023-05-10T03:09:35.149Z,932.22
2023-05-10T03:10:36.069Z,932.23
2023-05-10T03:11:36.866Z,932.25
2023-05-10T03:12:37.180Z,932.24
2023-05-10T03:13:37.643Z,932.25
2023-05-10T03:14:38.332Z,932.26
2023-05-10T03:15:38.652Z,932.23
2023-05-10T03:16:38.849Z,932.24
2023-05-10T03:17:39.234Z,932.28
2023-05-10T03:18:40.237Z,932.28
2023-05-10T03:19:40.763Z,932.24
2023-05-10T03:20:41.668Z,932.24
2023-05-10T03:21:42.543Z,932.23
2023-05-10T03:22:43.054Z,932.23
2023-05-10T03:23:43.776Z,932.25
2023-05-10T03:24:44.368Z,932.23
2023-05-10T03:25:44.666Z,932.21
2023-05-10T03:26:45.094Z,932.23
2023-05-10T03:27:45.805Z,932.24
2023-05-10T03:28:46.107Z,932.25
2023-05-10T03:29:46.831Z,932.21
2023-05-10T03:30:47.335Z,932.23
2023-05-10T03:31:48.349Z,932.24
2023-05-10T03:32:49.155Z,932.31
2023-05-10T03:33:50.129Z,932.29
2023-05-10T03:34:51.037Z,932.3
2023-05-10T03:35:51.741Z,932.27
2023-05-10T03:36:51.929Z,932.27
2023-05-10T03:37:52.625Z,932.29
2023-05-10T03:38:52.935Z,932.31
2023-05-10T03:39:53.351Z,932.32
2023-05-10T03:40:54.075Z,932.29
2023-05-10T03:41:54.629Z,932.31
2023-05-10T03:42:55.133Z,932.35
2023-05-10T03:43:55.896Z,932.38
2023-05-10T03:44:56.030Z,932.36
2023-05-10T03:45:56.699Z,932.38
2023-05-10T03:46:57.698Z,932.4
2023-05-10T03:47:57.950Z,932.4
2023-05-10T03:48:58.711Z,932.42
2023-05-10T03:49:59.076Z,932.47
2023-05-10T03:50:59.301Z,932.47
2023-05-10T03:51:59.404Z,932.41
2023-05-10T03:53:00.314Z,932.44
2023-05-10T03:54:01.222Z,932.45
2023-05-10T03:55:01.984Z,932.48
2023-05-10T03:56:02.534Z,932.46
2023-05-10T03:57:03.019Z,932.48
2023-05-10T03:58:03.468Z,932.47
2023-05-10T03:59:04.062Z,932.49
2023-05-10T04:00:04.995Z,932.5
2023-05-10T04:01:05.272Z,932.47
2023-05-10T04:02:06.408Z,932.48
2023-05-10T04:03:07.280Z,932.44
2023-05-10T04:04:07.591Z,932.47
2023-05-10T04:05:08.516Z,932.5
2023-05-10T04:06:09.610Z,932.47
2023-05-10T04:07:10.211Z,932.52
2023-05-10T04:08:11.123Z,932.52
2023-05-10T04:09:11.419Z,932.55
2023-05-10T04:10:12.001Z,932.5
2023-05-10T04:11:12.630Z,932.54
2023-05-10T04:12:13.008Z,932.51
2023-05-10T04:13:13.971Z,932.51
2023-05-10T04:14:14.789Z,932.53
2023-05-10T04:15:15.707Z,932.55
2023-05-10T04:16:16.205Z,932.55
2023-05-10T04:17:17.079Z,932.54
2023-05-10T04:18:17.852Z,932.56
2023-05-10T04:19:18.793Z,932.58
2023-05-10T04:20:19.243Z,932.6
2023-05-10T04:21:20.073Z,932.6
2023-05-10T04:22:20.564Z,932.66
2023-05-10T04:23:21.157Z,932.58
2023-05-10T04:24:21.714Z,932.65
2023-05-10T04:25:22.428Z,932.64
2023-05-10T04:26:23.148Z,932.59
2023-05-10T04:27:23.410Z,932.61
2023-05-10T04:28:24.124Z,932.66
2023-05-10T04:29:24.920Z,932.65
2023-05-10T04:30:25.441Z,932.65
2023-05-10T04:31:26.207Z,932.65
2023-05-10T04:32:27.265Z,932.66
2023-05-10T04:33:28.018Z,932.68
2023-05-10T04:34:28.322Z,932.69
2023-05-10T04:35:28.659Z,932.69
2023-05-10T04:36:29.573Z,932.7
2023-05-10T04:37:29.766Z,932.68
2023-05-10T04:38:30.264Z,932.71
2023-05-10T04:39:31.190Z,932.75
2023-05-10T04:40:32.270Z,932.74
2023-05-10T04:41:33.040Z,932.73
2023-05-10T04:42:33.771Z,932.66
2023-05-10T04:43:33.897Z,932.69
2023-05-10T04:44:34.578Z,932.7
2023-05-10T04:45:35.494Z,932.72
2023-05-10T04:46:35.871Z,932.7
2023-05-10T04:47:36.239Z,932.7
2023-05-10T04:48:36.902Z,932.7
2023-05-10T04:49:37.440Z,932.73
2023-05-10T04:50:37.722Z,932.7
2023-05-10T04:51:38.408Z,932.73
2023-05-10T04:52:38.512Z,932.72
2023-05-10T04:53:38.826Z,932.73
2023-05-10T04:54:39.042Z,932.77
2023-05-10T04:55:39.941Z,932.76
2023-05-10T04:56:40.345Z,932.76
2023-05-10T04:57:40.775Z,932.78
2023-05-10T04:58:41.533Z,932.78
2023-05-10T04:59:41.825Z,932.81
2023-05-10T05:00:42.147Z,932.83
2023-05-10T05:01:42.353Z,932.81
2023-05-10T05:02:42.803Z,932.85
2023-05-10T05:03:43.296Z,932.85
2023-05-10T05:04:43.822Z,932.87
2023-05-10T05:05:44.333Z,932.88
2023-05-10T05:06:44.836Z,932.96
2023-05-10T05:07:45.259Z,932.91
2023-05-10T05:08:45.748Z,932.99
2023-05-10T05:09:46.697Z,933
2023-05-10T05:10:47.211Z,932.98
2023-05-10T05:11:47.536Z,932.97
2023-05-10T05:12:48.471Z,932.99
2023-05-10T05:13:49.401Z,933.02
2023-05-10T05:14:50.044Z,933.01
2023-05-10T05:15:50.230Z,933.01
2023-05-10T05:16:50.327Z,933.01
2023-05-10T05:17:50.487Z,933.05
2023-05-10T05:18:51.484Z,933.01
2023-05-10T05:19:52.285Z,933.07
2023-05-10T05:20:53.019Z,933.03
2023-05-10T05:21:53.756Z,933.06
2023-05-10T05:22:54.681Z,933.05
2023-05-10T05:23:55.557Z,933.06
2023-05-10T05:24:56.254Z,933.05
2023-05-10T05:25:56.583Z,933.09
2023-05-10T05:26:57.135Z,933.08
2023-05-10T05:27:58.017Z,933.03
2023-05-10T05:28:58.713Z,933.07
2023-05-10T05:29:59.063Z,933.11
2023-05-10T05:31:00.102Z,933.08
2023-05-10T05:32:00.948Z,933.05
2023-05-10T05:33:01.970Z,933.1
2023-05-10T05:34:02.506Z,933.09
2023-05-10T05:35:02.643Z,933.09
2023-05-10T05:36:03.510Z,933.09
2023-05-10T05:37:04.000Z,933.12
2023-05-10T05:38:04.465Z,933.15
2023-05-10T05:39:04.961Z,933.14
2023-05-10T05:40:05.464Z,933.14
2023-05-10T05:41:06.432Z,933.18
2023-05-10T05:42:07.375Z,933.17
2023-05-10T05:43:08.110Z,933.16
2023-05-10T05:44:08.606Z,933.21
2023-05-10T05:45:09.328Z,933.19
2023-05-10T05:46:09.719Z,933.25
2023-05-10T05:47:09.916Z,933.24
2023-05-10T05:48:10.863Z,933.22
2023-05-10T05:49:11.483Z,933.28
2023-05-10T05:50:11.672Z,933.26
2023-05-10T05:51:12.386Z,933.25
2023-05-10T05:52:13.157Z,933.28
2023-05-10T05:53:14.068Z,933.3
2023-05-10T05:54:14.375Z,933.25
2023-05-10T05:55:15.506Z,933.29
2023-05-10T05:56:15.727Z,933.3
2023-05-10T05:57:16.423Z,933.3
2023-05-10T05:58:16.846Z,933.3
2023-05-10T05:59:17.587Z,933.32
2023-05-10T06:00:18.188Z,933.32
2023-05-10T06:01:18.930Z,933.36
2023-05-10T06:02:19.464Z,933.36
2023-05-10T06:03:20.006Z,933.38
2023-05-10T06:04:20.524Z,933.42
2023-05-10T06:05:20.877Z,933.43
2023-05-10T06:06:21.613Z,933.45
2023-05-10T06:07:21.903Z,933.47
2023-05-10T06:08:22.569Z,933.48
2023-05-10T06:09:23.084Z,933.46
2023-05-10T06:10:23.663Z,933.48
2023-05-10T06:11:24.074Z,933.46
2023-05-10T06:12:24.412Z,933.51
2023-05-10T06:13:25.160Z,933.52
2023-05-10T06:14:25.914Z,933.55
2023-05-10T06:15:26.453Z,933.58
2023-05-10T06:16:27.221Z,933.53
2023-05-10T06:17:28.114Z,933.58
2023-05-10T06:18:28.443Z,933.54
2023-05-10T06:19:28.569Z,933.56
2023-05-10T06:20:29.486Z,933.61
2023-05-10T06:21:29.988Z,933.54
2023-05-10T06:22:30.551Z,933.57
2023-05-10T06:23:31.302Z,933.57
2023-05-10T06:24:31.802Z,933.6
2023-05-10T06:25:32.714Z,933.62
2023-05-10T06:26:33.449Z,933.6
2023-05-10T06:27:34.355Z,933.61
2023-05-10T06:28:34.641Z,933.62
2023-05-10T06:29:35.390Z,933.66
2023-05-10T06:30:35.837Z,933.63
2023-05-10T06:31:36.599Z,933.64
2023-05-10T06:32:37.602Z,933.69
2023-05-10T06:33:37.992Z,933.7
2023-05-10T06:34:38.202Z,933.71
2023-05-10T06:35:39.114Z,933.72
2023-05-10T06:36:39.680Z,933.71
2023-05-10T06:37:40.635Z,933.72
2023-05-10T06:38:41.376Z,933.79
2023-05-10T06:39:42.301Z,933.74
2023-05-10T06:40:43.017Z,933.78
2023-05-10T06:41:43.754Z,933.72
2023-05-10T06:42:44.253Z,933.77
2023-05-10T06:43:44.379Z,933.76
2023-05-10T06:44:44.889Z,933.75
2023-05-10T06:45:45.823Z,933.8
2023-05-10T06:46:46.471Z,933.77
2023-05-10T06:47:47.521Z,933.78
2023-05-10T06:48:48.381Z,933.74
2023-05-10T06:49:49.110Z,933.76
2023-05-10T06:50:49.455Z,933.77
2023-05-10T06:51:50.165Z,933.75
2023-05-10T06:52:52.359Z,933.78
2023-05-10T06:53:51.473Z,933.78
2023-05-10T06:54:52.354Z,933.78
2023-05-10T06:55:52.534Z,933.75
2023-05-10T06:56:53.513Z,933.78
2023-05-10T06:57:53.921Z,933.75
2023-05-10T06:58:54.690Z,933.77
2023-05-10T06:59:55.785Z,933.77
2023-05-10T07:00:55.999Z,933.79
2023-05-10T07:01:57.035Z,933.77
2023-05-10T07:02:57.225Z,933.77
2023-05-10T07:03:57.458Z,933.79
2023-05-10T07:05:00.228Z,933.8
2023-05-10T07:05:58.638Z,933.81
2023-05-10T07:06:58.863Z,933.83
2023-05-10T07:07:59.795Z,933.83
2023-05-10T07:09:00.585Z,933.84
2023-05-10T07:10:01.131Z,933.85
2023-05-10T07:11:01.900Z,933.89
2023-05-10T07:12:02.467Z,933.9
2023-05-10T07:13:03.370Z,933.92
2023-05-10T07:14:04.008Z,933.91
2023-05-10T07:15:04.792Z,933.9
2023-05-10T07:16:05.308Z,933.94
2023-05-10T07:17:05.338Z,933.93
2023-05-10T07:18:06.291Z,933.93
2023-05-10T07:19:07.092Z,933.9
2023-05-10T07:20:07.831Z,933.91
2023-05-10T07:21:08.671Z,933.95
2023-05-10T07:22:09.026Z,933.9
2023-05-10T07:23:09.976Z,933.92
2023-05-10T07:24:10.561Z,933.93
2023-05-10T07:25:11.090Z,933.89
2023-05-10T07:26:12.161Z,933.92
2023-05-10T07:27:12.957Z,933.9
2023-05-10T07:28:13.135Z,933.9
2023-05-10T07:29:14.076Z,933.88
2023-05-10T07:30:14.350Z,933.88
2023-05-10T07:31:14.530Z,933.89
2023-05-10T07:32:14.804Z,933.91
2023-05-10T07:33:15.633Z,933.91
2023-05-10T07:34:16.645Z,933.92
2023-05-10T07:35:17.985Z,933.92
2023-05-10T07:36:18.603Z,933.91
2023-05-10T07:37:19.309Z,933.89
2023-05-10T07:38:20.235Z,933.95
2023-05-10T07:39:26.384Z,933.94
2023-05-10T07:40:21.897Z,933.95
2023-05-10T07:41:22.765Z,933.93
2023-05-10T07:42:23.596Z,933.95
2023-05-10T07:43:24.628Z,933.95
2023-05-10T07:44:25.475Z,933.9
2023-05-10T07:45:25.600Z,933.89
2023-05-10T07:46:26.545Z,933.92
2023-05-10T07:47:26.768Z,933.9
2023-05-10T07:48:27.636Z,933.94
2023-05-10T07:49:27.817Z,933.93
2023-05-10T07:50:28.285Z,933.91
2023-05-10T07:51:29.075Z,933.94
2023-05-10T07:52:29.834Z,933.93
2023-05-10T07:53:29.984Z,933.93
2023-05-10T07:54:31.012Z,933.95
2023-05-10T07:55:31.195Z,933.96
2023-05-10T07:56:32.130Z,933.99
2023-05-10T07:57:32.280Z,933.96
2023-05-10T07:58:33.245Z,933.96
2023-05-10T07:59:34.022Z,934
2023-05-10T08:00:34.143Z,933.99
2023-05-10T08:01:34.307Z,934.03
2023-05-10T08:02:35.219Z,934.03
2023-05-10T08:03:36.088Z,934.02
2023-05-10T08:04:37.053Z,934.02
2023-05-10T08:05:37.439Z,934
2023-05-10T08:06:38.383Z,934
2023-05-10T08:07:39.216Z,934.02
2023-05-10T08:08:40.139Z,933.98
2023-05-10T08:09:40.291Z,934.02
2023-05-10T08:10:41.322Z,934.05
2023-05-10T08:11:42.395Z,934.01
2023-05-10T08:12:42.627Z,934.03
2023-05-10T08:13:43.060Z,934.04
2023-05-10T08:14:44.035Z,934
2023-05-10T08:15:45.087Z,934.02
2023-05-10T08:16:45.472Z,934.03
2023-05-10T08:17:46.232Z,933.99
2023-05-10T08:18:46.793Z,934.01
2023-05-10T08:19:47.110Z,933.99
2023-05-10T08:20:47.637Z,934.01
2023-05-10T08:21:48.591Z,933.99
2023-05-10T08:22:51.233Z,934
2023-05-10T08:23:49.624Z,933.98
2023-05-10T08:24:50.371Z,933.97
2023-05-10T08:25:50.635Z,933.97
2023-05-10T08:26:51.593Z,934.02
2023-05-10T08:27:52.638Z,934
2023-05-10T08:28:53.564Z,934.03
2023-05-10T08:29:53.742Z,934.04
2023-05-10T08:30:54.701Z,934.05
2023-05-10T08:31:55.321Z,934.06
2023-05-10T08:32:56.158Z,934.04
2023-05-10T08:33:56.646Z,934.06
2023-05-10T08:34:56.899Z,934.01
2023-05-10T08:35:57.609Z,934.03
2023-05-10T08:36:58.468Z,933.99
2023-05-10T08:37:59.091Z,934.01
2023-05-10T08:39:00.015Z,934.05
2023-05-10T08:40:07.625Z,934.02
2023-05-10T08:41:07.854Z,934.02
2023-05-10T08:42:08.873Z,934.04
2023-05-10T08:43:09.879Z,934.03
2023-05-10T08:44:10.561Z,934.03
2023-05-10T08:45:11.208Z,934.04
2023-05-10T08:46:11.779Z,934
2023-05-10T08:47:12.740Z,934.01
2023-05-10T08:48:13.579Z,934.01
2023-05-10T08:49:13.786Z,934.07
2023-05-10T08:50:13.911Z,934.04
2023-05-10T08:51:14.081Z,933.99
2023-05-10T08:52:14.826Z,934.01
2023-05-10T08:53:15.798Z,934
2023-05-10T08:54:16.378Z,934.01
2023-05-10T08:55:17.476Z,934.04
2023-05-10T08:56:17.628Z,934.02
2023-05-10T08:57:18.406Z,934.08
2023-05-10T08:58:18.787Z,934.08
2023-05-10T08:59:18.991Z,934.04
2023-05-10T09:00:19.798Z,934.08
2023-05-10T09:01:20.183Z,934.15
2023-05-10T09:02:20.969Z,934.21
2023-05-10T09:03:21.346Z,934.16
2023-05-10T09:04:22.200Z,934.22
2023-05-10T09:05:23.089Z,934.2
2023-05-10T09:06:23.790Z,934.16
2023-05-10T09:07:24.620Z,934.2
2023-05-10T09:08:25.470Z,934.2
2023-05-10T09:09:26.421Z,934.21
2023-05-10T09:10:26.624Z,934.22
2023-05-10T09:11:27.552Z,934.22
2023-05-10T09:12:28.147Z,934.22
2023-05-10T09:13:28.338Z,934.28
2023-05-10T09:14:28.603Z,934.21
2023-05-10T09:15:29.216Z,934.19
2023-05-10T09:16:29.386Z,934.22
2023-05-10T09:17:30.271Z,934.21
2023-05-10T09:18:30.615Z,934.23
2023-05-10T09:19:30.924Z,934.24
2023-05-10T09:20:31.716Z,934.23
2023-05-10T09:21:32.249Z,934.25
2023-05-10T09:22:33.062Z,934.22
2023-05-10T09:23:33.996Z,934.25
2023-05-10T09:24:34.496Z,934.25
2023-05-10T09:25:35.344Z,934.19
2023-05-10T09:26:35.497Z,934.21
2023-05-10T09:27:36.585Z,934.2
2023-05-10T09:28:36.850Z,934.21
2023-05-10T09:29:37.577Z,934.22
2023-05-10T09:30:37.746Z,934.24
2023-05-10T09:31:38.142Z,934.22
2023-05-10T09:32:39.083Z,934.21
2023-05-10T09:33:39.502Z,934.22
2023-05-10T09:34:40.518Z,934.19
2023-05-10T09:35:41.478Z,934.19
2023-05-10T09:36:42.245Z,934.21
2023-05-10T09:37:43.057Z,934.2
2023-05-10T09:38:43.996Z,934.22
2023-05-10T09:39:44.131Z,934.24
2023-05-10T09:40:44.921Z,934.28
2023-05-10T09:41:45.734Z,934.31
2023-05-10T09:42:46.723Z,934.31
2023-05-10T09:43:47.023Z,934.35
2023-05-10T09:44:47.989Z,934.3
2023-05-10T09:45:48.833Z,934.33
2023-05-10T09:46:49.018Z,934.3
2023-05-10T09:47:49.949Z,934.28
2023-05-10T09:48:50.871Z,934.27
2023-05-10T09:49:51.828Z,934.25
2023-05-10T09:50:51.996Z,934.26
2023-05-10T09:51:52.317Z,934.29
2023-05-10T09:52:53.154Z,934.27
2023-05-10T09:53:54.093Z,934.29
2023-05-10T09:54:54.818Z,934.28
2023-05-10T09:55:55.732Z,934.27
2023-05-10T09:56:56.693Z,934.26
2023-05-10T09:57:56.935Z,934.28
2023-05-10T09:58:57.898Z,934.31
2023-05-10T09:59:58.448Z,934.28
2023-05-10T10:00:59.201Z,934.3
2023-05-10T10:01:59.481Z,934.31
2023-05-10T10:03:00.203Z,934.29
2023-05-10T10:04:00.640Z,934.32
2023-05-10T10:05:01.679Z,934.28
2023-05-10T10:06:02.525Z,934.29
2023-05-10T10:07:02.714Z,934.32
2023-05-10T10:08:03.284Z,934.35
2023-05-10T10:09:04.305Z,934.39
2023-05-10T10:10:05.467Z,934.35
2023-05-10T10:11:06.267Z,934.38
2023-05-10T10:12:07.296Z,934.4
2023-05-10T10:13:08.222Z,934.38
2023-05-10T10:14:09.211Z,934.4
2023-05-10T10:15:10.173Z,934.44
2023-05-10T10:16:11.090Z,934.42
2023-05-10T10:17:11.223Z,934.42
2023-05-10T10:18:11.597Z,934.43
2023-05-10T10:19:11.941Z,934.41
2023-05-10T10:20:12.293Z,934.44
2023-05-10T10:21:12.857Z,934.46
2023-05-10T10:22:13.577Z,934.45
2023-05-10T10:23:15.099Z,934.48
2023-05-10T10:24:14.548Z,934.49
2023-05-10T10:25:15.502Z,934.44
2023-05-10T10:26:16.425Z,934.45
2023-05-10T10:27:17.390Z,934.43
2023-05-10T10:28:18.190Z,934.45
2023-05-10T10:29:18.978Z,934.46
2023-05-10T10:30:19.892Z,934.45
2023-05-10T10:31:20.831Z,934.47
2023-05-10T10:32:21.264Z,934.47
2023-05-10T10:33:28.257Z,934.46
2023-05-10T10:34:22.650Z,934.47
2023-05-10T10:35:23.209Z,934.48
2023-05-10T10:36:23.426Z,934.48
2023-05-10T10:37:24.199Z,934.48
2023-05-10T10:38:24.433Z,934.52
2023-05-10T10:39:25.390Z,934.48
2023-05-10T10:40:26.075Z,934.48
2023-05-10T10:41:26.972Z,934.48
2023-05-10T10:42:27.110Z,934.49
2023-05-10T10:43:28.092Z,934.47
2023-05-10T10:44:29.104Z,934.47
2023-05-10T10:45:29.863Z,934.46
2023-05-10T10:46:30.317Z,934.47
2023-05-10T10:47:31.342Z,934.48
2023-05-10T10:48:31.511Z,934.47
2023-05-10T10:49:32.474Z,934.42
2023-05-10T10:50:33.093Z,934.44
2023-05-10T10:51:33.310Z,934.44
2023-05-10T10:52:34.471Z,934.41
2023-05-10T10:53:34.510Z,934.4
2023-05-10T10:54:35.479Z,934.42
2023-05-10T10:55:36.497Z,934.38
2023-05-10T10:56:37.197Z,934.34
2023-05-10T10:57:37.184Z,934.38
2023-05-10T10:58:38.205Z,934.33
2023-05-10T10:59:38.755Z,934.34
2023-05-10T11:00:38.949Z,934.36
2023-05-10T11:01:39.699Z,934.35
2023-05-10T11:02:40.235Z,934.36
2023-05-10T11:03:41.192Z,934.39
2023-05-10T11:04:42.183Z,934.4
2023-05-10T11:05:42.323Z,934.36
2023-05-10T11:06:42.509Z,934.36
2023-05-10T11:07:43.361Z,934.38
2023-05-10T11:08:44.147Z,934.41
2023-05-10T11:09:45.087Z,934.38
2023-05-10T11:10:45.258Z,934.42
2023-05-10T11:11:45.688Z,934.4
2023-05-10T11:12:46.595Z,934.38
2023-05-10T11:13:49.270Z,934.37
2023-05-10T11:14:47.725Z,934.39
2023-05-10T11:15:48.204Z,934.37
2023-05-10T11:16:49.181Z,934.37
2023-05-10T11:17:50.057Z,934.42
2023-05-10T11:18:51.169Z,934.39
2023-05-10T11:19:51.473Z,934.41
2023-05-10T11:20:52.181Z,934.42
2023-05-10T11:21:52.716Z,934.4
2023-05-10T11:22:53.700Z,934.41
2023-05-10T11:23:54.618Z,934.47
2023-05-10T11:24:55.570Z,934.48
2023-05-10T11:25:56.499Z,934.48
2023-05-10T11:26:57.422Z,934.43
2023-05-10T11:27:57.568Z,934.48
2023-05-10T11:28:57.869Z,934.47
2023-05-10T11:29:58.794Z,934.43
2023-05-10T11:30:59.004Z,934.43
2023-05-10T11:31:59.110Z,934.42
2023-05-10T11:33:00.067Z,934.44
2023-05-10T11:34:00.803Z,934.47
2023-05-10T11:35:00.973Z,934.49
2023-05-10T11:36:01.557Z,934.52
2023-05-10T11:37:02.372Z,934.51
2023-05-10T11:38:03.096Z,934.5
2023-05-10T11:39:03.613Z,934.49
2023-05-10T11:40:03.734Z,934.45
2023-05-10T11:41:04.012Z,934.44
2023-05-10T11:42:04.675Z,934.45
2023-05-10T11:43:05.624Z,934.46
2023-05-10T11:44:06.603Z,934.48
2023-05-10T11:45:07.367Z,934.47
2023-05-10T11:46:07.941Z,934.49
2023-05-10T11:47:08.310Z,934.46
2023-05-10T11:48:08.490Z,934.53
2023-05-10T11:49:08.657Z,934.54
2023-05-10T11:50:09.374Z,934.5
2023-05-10T11:51:10.182Z,934.49
2023-05-10T11:52:10.316Z,934.51
2023-05-10T11:53:11.157Z,934.5
2023-05-10T11:54:12.225Z,934.5
2023-05-10T11:55:12.996Z,934.48
2023-05-10T11:56:13.523Z,934.49
2023-05-10T11:57:13.794Z,934.52
2023-05-10T11:58:13.939Z,934.53
2023-05-10T11:59:14.470Z,934.51
2023-05-10T12:00:15.682Z,934.5
2023-05-10T12:01:15.863Z,934.55
2023-05-10T12:02:16.605Z,934.52
2023-05-10T12:03:16.833Z,934.54
2023-05-10T12:04:17.652Z,934.53
2023-05-10T12:05:17.918Z,934.53
2023-05-10T12:06:18.044Z,934.55
2023-05-10T12:07:18.423Z,934.56
2023-05-10T12:08:18.412Z,934.53
2023-05-10T12:09:23.229Z,934.54
2023-05-10T12:10:19.912Z,934.53
2023-05-10T12:11:19.976Z,934.52
2023-05-10T12:12:20.850Z,934.55
2023-05-10T12:13:21.417Z,934.59
2023-05-10T12:14:21.601Z,934.57
2023-05-10T12:15:22.358Z,934.63
2023-05-10T12:16:22.697Z,934.61
2023-05-10T12:17:22.845Z,934.62
2023-05-10T12:18:23.615Z,934.63
2023-05-10T12:19:23.667Z,934.61
2023-05-10T12:20:23.936Z,934.63
2023-05-10T12:21:24.860Z,934.67
2023-05-10T12:22:25.932Z,934.72
2023-05-10T12:23:26.724Z,934.7
2023-05-10T12:24:27.653Z,934.75
2023-05-10T12:25:27.991Z,934.77
2023-05-10T12:26:28.748Z,934.78
2023-05-10T12:27:29.581Z,934.82
2023-05-10T12:28:30.347Z,934.8
2023-05-10T12:29:31.275Z,934.82
2023-05-10T12:30:31.788Z,934.81
2023-05-10T12:31:33.888Z,934.8
2023-05-10T12:33:34.554Z,934.83
2023-05-10T12:34:34.936Z,934.81
2023-05-10T12:35:35.663Z,934.84
2023-05-10T12:36:36.386Z,934.81
2023-05-10T12:37:37.352Z,934.84
2023-05-10T12:38:38.274Z,934.84
2023-05-10T12:39:38.983Z,934.84
2023-05-10T12:40:39.285Z,934.84